Time;durP1;ratioP1;P1;durP2;ratioP2;P2;SDS_P1;SDS_P2;PMS_P1;PMS_P2;Temp;Humidity;BMP_temperature;BMP_pressure;BME280_temperature;BME280_humidity;BME280_pressure;Samples;Min_cycle;Max_cycle;Signal;HPM_P1;HPM_P2
2022/05/22 00:01:31;;;;;;;2.65;1.13;;;;;;;20.09;59.55;101615.53;25676693;23;20040;-62
2022/05/22 00:11:32;;;;;;;2.55;1.10;;;;;;;20.07;59.03;101608.53;25672149;23;20027;-62
2022/05/22 00:21:35;;;;;;;2.50;1.08;;;;;;;20.06;58.94;101606.81;25672398;23;20021;-63
2022/05/22 00:31:36;;;;;;;0.82;0.80;;;;;;;19.86;58.52;101577.81;25646515;23;20459;-63
2022/05/22 00:41:39;;;;;;;1.88;0.80;;;;;;;19.99;57.98;101601.97;25682293;23;20083;-62
2022/05/22 00:51:53;;;;;;;2.13;0.93;;;;;;;19.95;57.60;101599.69;25685410;23;20071;-62
2022/05/22 01:01:56;;;;;;;1.30;0.70;;;;;;;19.93;57.33;101593.56;25631805;23;20423;-62
2022/05/22 01:12:05;;;;;;;2.20;0.80;;;;;;;19.91;57.02;101590.13;25657777;23;20467;-62
2022/05/22 01:22:12;;;;;;;2.50;0.80;;;;;;;19.86;56.67;101591.31;25655611;23;20023;-62
2022/05/22 01:32:16;;;;;;;2.00;0.90;;;;;;;19.81;56.61;101590.88;25657544;23;20017;-62
2022/05/22 01:42:19;;;;;;;2.33;0.80;;;;;;;19.74;56.72;101581.56;25655368;23;20027;-62
2022/05/22 01:52:21;;;;;;;1.38;0.77;;;;;;;19.61;56.67;101576.38;25655379;23;20394;-62
2022/05/22 02:02:23;;;;;;;1.92;0.90;;;;;;;19.76;56.46;101612.03;25632162;23;20344;-62
2022/05/22 02:12:29;;;;;;;1.98;1.08;;;;;;;19.77;56.26;101594.81;25632665;23;20021;-63
2022/05/22 02:22:39;;;;;;;1.75;0.63;;;;;;;19.71;55.86;101596.22;25656168;23;20095;-62
2022/05/22 02:32:40;;;;;;;4.53;0.77;;;;;;;19.67;56.34;101583.09;25650903;23;20332;-63
2022/05/22 02:42:46;;;;;;;1.23;0.80;;;;;;;19.67;57.88;101575.88;25645447;23;20020;-62
2022/05/22 02:52:55;;;;;;;1.20;0.80;;;;;;;19.67;57.36;101547.97;25655570;23;20032;-62
2022/05/22 03:03:01;;;;;;;1.70;0.90;;;;;;;19.67;57.08;101545.28;25632370;23;20020;-62
2022/05/22 03:13:03;;;;;;;2.17;1.00;;;;;;;19.61;55.96;101549.34;25658098;23;20028;-62
2022/05/22 03:23:09;;;;;;;1.00;0.77;;;;;;;19.54;55.93;101537.38;25610391;23;20017;-62
2022/05/22 03:33:10;;;;;;;1.70;0.70;;;;;;;19.49;56.09;101532.38;25657748;23;20125;-62
2022/05/22 03:43:17;;;;;;;1.25;0.63;;;;;;;19.49;56.00;101518.88;25657417;23;20020;-62
2022/05/22 03:53:19;;;;;;;1.10;0.88;;;;;;;19.51;55.67;101519.59;25632379;23;20017;-62
2022/05/22 04:03:21;;;;;;;0.70;0.70;;;;;;;19.53;56.09;101525.72;25656248;23;20383;-62
2022/05/22 04:13:28;;;;;;;1.67;0.77;;;;;;;19.52;55.97;101515.03;25631569;23;20114;-62
2022/05/22 04:33:50;;;;;;;1.50;0.77;;;;;;;19.49;55.83;101510.78;25655769;23;20017;-62
2022/05/22 04:43:52;;;;;;;1.73;0.85;;;;;;;19.49;55.96;101510.78;25655902;23;20020;-62
2022/05/22 04:53:54;;;;;;;2.35;1.52;;;;;;;19.48;55.79;101506.38;25653841;23;20091;-62
2022/05/22 05:04:01;;;;;;;1.77;1.00;;;;;;;19.48;56.10;101500.97;25680781;23;20099;-62
2022/05/22 05:14:05;;;;;;;1.25;0.80;;;;;;;19.48;56.17;101500.09;25678806;23;20066;-62
2022/05/22 05:24:06;;;;;;;1.20;0.70;;;;;;;19.48;56.46;101502.81;25608075;23;20017;-62
2022/05/22 05:34:10;;;;;;;1.77;0.97;;;;;;;19.48;57.28;101508.19;25636134;23;20021;-62
2022/05/22 05:44:48;;;;;;;1.13;0.80;;;;;;;19.35;57.92;101489.50;25666778;23;20016;-63
2022/05/22 05:54:56;;;;;;;1.45;0.93;;;;;;;19.48;58.46;101514.47;25657115;23;20451;-62
2022/05/22 06:05:21;;;;;;;4.77;1.27;;;;;;;19.47;58.15;101515.47;25655010;23;20021;-62
2022/05/22 06:15:23;;;;;;;1.58;0.80;;;;;;;19.47;58.84;101498.38;25620993;23;20020;-63
2022/05/22 06:25:25;;;;;;;1.55;0.93;;;;;;;19.41;59.54;101479.03;25646220;23;20024;-62
2022/05/22 06:35:47;;;;;;;4.60;1.25;;;;;;;19.55;59.96;101491.34;25672975;23;20016;-62
2022/05/22 06:46:26;;;;;;;2.57;0.93;;;;;;;19.59;60.39;101491.91;25646616;23;20052;-62
2022/05/22 06:56:46;;;;;;;3.27;0.93;;;;;;;19.61;60.20;101497.19;25675546;23;20048;-62
2022/05/22 07:07:09;;;;;;;2.45;1.00;;;;;;;19.43;60.43;101459.97;25647357;23;20053;-62
2022/05/22 07:17:34;;;;;;;2.73;1.00;;;;;;;19.68;60.95;101495.66;25660742;23;20020;-62
2022/05/22 07:27:55;;;;;;;1.95;1.13;;;;;;;19.77;60.92;101492.16;25645394;23;20399;-62
2022/05/22 07:38:06;;;;;;;5.10;1.10;;;;;;;19.89;60.61;101484.00;25645144;23;20050;-62
2022/05/22 07:48:26;;;;;;;3.72;1.08;;;;;;;19.98;60.54;101480.50;25671935;23;20020;-62
2022/05/22 07:58:31;;;;;;;2.30;0.93;;;;;;;20.07;60.51;101479.66;25646012;23;20028;-62
2022/05/22 08:08:44;;;;;;;2.90;1.00;;;;;;;20.76;59.11;101481.66;25643182;23;20036;-62
2022/05/22 08:18:50;;;;;;;1.80;0.70;;;;;;;22.28;54.65;101479.06;25644751;23;20074;-61
2022/05/22 08:28:52;;;;;;;3.25;1.00;;;;;;;23.35;51.51;101478.44;25641663;23;20091;-62
2022/05/22 08:38:55;;;;;;;2.45;0.98;;;;;;;22.89;51.69;101470.41;25642717;23;20024;-62
2022/05/22 08:48:58;;;;;;;2.22;0.80;;;;;;;22.05;53.62;101451.50;25668525;23;20028;-62
2022/05/22 08:59:08;;;;;;;2.47;1.00;;;;;;;21.76;55.04;101463.34;25649661;23;20024;-62
2022/05/22 09:09:10;;;;;;;2.80;1.02;;;;;;;21.58;56.09;101453.25;25653722;23;20473;-62
2022/05/22 09:19:17;;;;;;;2.00;0.80;;;;;;;21.45;56.73;101463.56;25645009;23;20012;-62
2022/05/22 09:29:28;;;;;;;1.98;0.80;;;;;;;21.35;56.61;101451.88;25642003;23;20463;-62
2022/05/22 09:39:55;;;;;;;1.17;0.70;;;;;;;21.32;56.87;101431.34;25670610;23;20024;-62
2022/05/22 09:50:34;;;;;;;1.73;0.70;;;;;;;21.32;56.87;101415.09;25638795;23;20032;-63
2022/05/22 10:00:42;;;;;;;1.80;0.52;;;;;;;21.33;56.60;101408.69;25591266;23;20020;-63
2022/05/22 10:11:00;;;;;;;4.40;0.70;;;;;;;21.32;56.18;101398.03;25639776;23;20027;-63
2022/05/22 10:21:19;;;;;;;3.05;1.02;;;;;;;21.12;56.60;101368.28;25636302;23;20032;-63
2022/05/22 10:31:38;;;;;;;1.60;0.93;;;;;;;21.01;56.72;101337.69;25667154;23;20063;-64
2022/05/22 10:52:26;;;;;;;2.05;0.68;;;;;;;21.28;56.91;101360.41;25669555;23;20076;-63
2022/05/22 11:02:30;;;;;;;3.70;0.82;;;;;;;21.10;56.93;101324.25;25653019;23;20028;-64
2022/05/22 11:12:31;;;;;;;0.93;0.60;;;;;;;21.28;56.86;101335.16;25634889;23;20020;-64
2022/05/22 11:22:59;;;;;;;2.63;0.82;;;;;;;21.30;56.62;101328.63;25656941;23;20083;-64
2022/05/22 11:33:15;;;;;;;2.92;0.60;;;;;;;21.34;56.59;101312.91;25657740;23;20035;-63
2022/05/22 11:43:44;;;;;;;1.63;0.60;;;;;;;21.28;56.66;101295.41;25634743;23;20027;-63
2022/05/22 11:53:56;;;;;;;2.78;0.60;;;;;;;21.38;59.32;101299.94;25648755;23;20027;-63
2022/05/22 12:04:16;;;;;;;1.27;0.63;;;;;;;21.38;58.10;101283.69;25647630;23;20024;-64
2022/05/22 12:14:31;;;;;;;2.70;0.70;;;;;;;21.36;58.28;101283.81;25658270;23;20588;-64
2022/05/22 12:24:44;;;;;;;1.70;0.70;;;;;;;21.34;58.80;101271.44;25638717;23;20082;-64
2022/05/22 12:34:49;;;;;;;1.95;0.60;;;;;;;21.30;59.49;101255.50;25632899;23;20017;-64
2022/05/22 12:44:51;;;;;;;1.58;0.68;;;;;;;21.18;60.33;101243.13;25642502;23;20028;-64
2022/05/22 12:54:57;;;;;;;0.68;0.57;;;;;;;21.25;59.70;101251.53;25639785;23;20017;-64
2022/05/22 13:05:00;;;;;;;1.80;0.50;;;;;;;21.23;60.12;101248.13;25675540;23;20099;-64
2022/05/22 13:15:04;;;;;;;2.33;0.70;;;;;;;21.19;60.43;101242.13;25668343;23;20032;-64
2022/05/22 13:25:23;;;;;;;2.97;0.80;;;;;;;21.15;60.98;101219.06;25663931;23;20028;-64
2022/05/22 13:35:28;;;;;;;1.45;0.70;;;;;;;21.12;61.57;101214.84;25635553;23;20020;-65
2022/05/22 13:45:44;;;;;;;1.15;0.50;;;;;;;21.11;61.20;101213.13;25639101;23;20467;-65
2022/05/22 13:55:47;;;;;;;1.10;0.55;;;;;;;21.10;61.62;101197.03;25663146;23;20031;-65
2022/05/22 14:05:56;;;;;;;0.95;0.60;;;;;;;21.10;61.43;101194.31;25636647;23;20027;-64
2022/05/22 14:16:01;;;;;;;2.35;0.70;;;;;;;21.11;61.03;101185.19;25636287;23;20024;-63
2022/05/22 14:26:04;;;;;;;1.63;0.73;;;;;;;21.11;62.49;101168.94;25661204;23;20021;-64
2022/05/22 14:36:09;;;;;;;1.58;0.73;;;;;;;21.09;61.60;101160.13;25665836;23;20028;-63
2022/05/22 14:46:21;;;;;;;1.55;0.70;;;;;;;21.09;62.08;101158.28;25662531;23;20016;-64
2022/05/22 14:56:23;;;;;;;1.55;0.90;;;;;;;21.10;62.99;101130.22;25661111;23;20025;-64
2022/05/22 15:06:32;;;;;;;2.88;0.70;;;;;;;21.08;62.02;101120.53;25632848;23;20479;-63
2022/05/22 15:16:36;;;;;;;1.85;0.85;;;;;;;20.85;61.88;101066.84;25663381;23;20048;-64
2022/05/22 15:26:42;;;;;;;;;;;;;;;21.09;61.23;101089.75;25668914;23;20051;-63
2022/05/22 15:36:43;;;;;;;3.88;0.80;;;;;;;21.07;61.02;101089.06;25640463;23;19947;-63
2022/05/22 15:47:00;;;;;;;2.33;0.73;;;;;;;21.08;60.73;101080.78;25663598;23;20455;-63
2022/05/22 15:57:03;;;;;;;3.22;1.05;;;;;;;21.11;60.85;101071.50;25658280;23;20043;-64
2022/05/22 16:07:04;;;;;;;6.10;1.42;;;;;;;21.06;61.79;101049.44;25628706;23;20020;-64
2022/05/22 16:17:09;;;;;;;4.35;1.00;;;;;;;21.12;60.99;101052.41;25662570;23;20016;-65
2022/05/22 16:27:10;;;;;;;3.83;0.97;;;;;;;21.14;61.80;101027.88;25630714;23;20351;-65
2022/05/22 16:37:18;;;;;;;1.35;0.82;;;;;;;21.23;63.46;101013.44;25658280;23;20398;-65
2022/05/22 16:57:40;;;;;;;2.40;0.80;;;;;;;21.37;66.34;101011.16;25631631;23;20017;-63
2022/05/22 17:07:42;;;;;;;2.55;0.70;;;;;;;21.36;66.25;100998.63;25656556;23;20033;-62
2022/05/22 17:17:44;;;;;;;3.15;0.77;;;;;;;21.33;65.71;101010.59;25638698;23;20024;-63
2022/05/22 17:27:53;;;;;;;3.10;0.98;;;;;;;21.30;64.97;101006.38;25665248;23;20071;-65
2022/05/22 17:37:56;;;;;;;3.95;0.98;;;;;;;21.25;63.78;101000.59;25635890;23;20025;-66
2022/05/22 17:47:57;;;;;;;2.22;0.70;;;;;;;21.26;63.14;100999.56;25639097;23;20078;-62
2022/05/22 17:57:59;;;;;;;1.30;0.70;;;;;;;21.24;62.74;100995.31;25665641;23;20032;-63
2022/05/22 18:08:01;;;;;;;4.22;0.95;;;;;;;21.21;64.72;100985.66;25674593;23;20025;-63
2022/05/22 18:18:04;;;;;;;2.50;0.65;;;;;;;21.19;64.43;100984.94;25650910;23;20021;-62
2022/05/22 18:28:19;;;;;;;2.50;0.67;;;;;;;21.17;64.73;100968.00;25680325;23;20024;-63
2022/05/22 18:38:21;;;;;;;2.15;0.80;;;;;;;21.14;64.41;100961.06;25677871;23;20067;-63
2022/05/22 18:48:24;;;;;;;1.88;0.60;;;;;;;21.10;64.40;100942.56;25682978;23;20332;-63
2022/05/22 18:58:29;;;;;;;2.13;0.70;;;;;;;21.07;64.75;100934.75;25677011;23;20024;-64
2022/05/22 19:08:32;;;;;;;2.53;0.43;;;;;;;21.02;64.37;100916.31;25623006;23;20376;-64
2022/05/22 19:18:34;;;;;;;3.00;1.00;;;;;;;20.97;64.67;100914.06;25648665;23;20020;-64
2022/05/22 19:28:36;;;;;;;2.47;0.80;;;;;;;20.92;66.39;100910.97;25676914;23;20016;-64
2022/05/22 19:38:37;;;;;;;3.72;1.20;;;;;;;20.89;65.64;100900.47;25627137;23;20016;-64
2022/05/22 19:48:39;;;;;;;1.88;0.93;;;;;;;20.87;66.82;100907.88;25678817;23;20082;-63
2022/05/22 19:58:41;;;;;;;4.28;0.82;;;;;;;20.84;66.60;100908.19;25651989;23;20067;-64
2022/05/22 20:08:45;;;;;;;2.00;0.90;;;;;;;20.83;65.40;100892.97;25679149;23;20017;-64
2022/05/22 20:18:47;;;;;;;2.40;0.80;;;;;;;20.81;65.00;100892.28;25678282;23;20636;-63
2022/05/22 20:28:49;;;;;;;2.78;0.95;;;;;;;20.78;64.51;100898.81;25649475;23;20096;-63
2022/05/22 20:38:50;;;;;;;1.98;0.65;;;;;;;20.75;64.91;100891.00;25676432;23;20024;-63
2022/05/22 20:48:54;;;;;;;2.05;0.80;;;;;;;20.72;63.95;100880.50;25675130;23;20333;-64
2022/05/22 20:58:56;;;;;;;1.73;0.85;;;;;;;20.71;63.65;100865.28;25680242;23;20103;-63
2022/05/22 21:08:58;;;;;;;2.33;1.05;;;;;;;20.70;62.60;100852.75;25656530;23;20025;-63
2022/05/22 21:19:01;;;;;;;3.28;1.42;;;;;;;20.68;63.98;100835.84;25681085;23;20348;-63
2022/05/22 21:29:03;;;;;;;2.55;1.10;;;;;;;20.66;64.94;100825.16;25655535;23;20032;-63
2022/05/22 21:39:04;;;;;;;3.50;1.00;;;;;;;20.65;64.56;100818.03;25656396;23;20054;-63
2022/05/22 21:49:06;;;;;;;1.77;0.90;;;;;;;20.64;64.32;100816.34;25682853;23;20046;-63
2022/05/22 21:59:11;;;;;;;2.60;1.20;;;;;;;20.61;63.12;100815.81;25681095;23;20024;-63
2022/05/22 22:09:12;;;;;;;1.83;0.95;;;;;;;20.58;62.31;100807.03;25679995;23;20083;-63
2022/05/22 22:19:14;;;;;;;1.83;0.80;;;;;;;20.56;61.91;100808.19;25677967;23;20333;-63
2022/05/22 22:29:17;;;;;;;1.50;1.00;;;;;;;20.53;61.78;100797.66;25680297;23;20393;-64
2022/05/22 22:39:20;;;;;;;1.85;1.00;;;;;;;20.53;61.52;100805.78;25679475;23;20091;-64
2022/05/22 22:49:22;;;;;;;1.25;0.70;;;;;;;20.51;61.01;100805.09;25679940;23;20024;-63
2022/05/22 22:59:29;;;;;;;0.88;0.60;;;;;;;20.50;61.18;100795.28;25679328;23;20021;-63
2022/05/22 23:09:31;;;;;;;1.08;0.65;;;;;;;20.48;61.34;100783.78;25677633;23;20024;-63
2022/05/22 23:19:33;;;;;;;1.40;0.70;;;;;;;20.45;61.08;100771.41;25675119;23;20051;-64
2022/05/22 23:29:36;;;;;;;1.85;0.82;;;;;;;20.26;60.73;100734.56;25678732;23;20048;-63
2022/05/22 23:39:39;;;;;;;1.95;0.73;;;;;;;20.41;60.27;100749.25;25679254;23;20017;-63
2022/05/22 23:49:40;;;;;;;2.50;0.85;;;;;;;20.39;60.37;100737.75;25680501;23;20095;-64
2022/05/22 23:59:42;;;;;;;0.93;0.50;;;;;;;20.37;60.01;100728.94;25677177;23;20047;-64
